Time;durP1;ratioP1;P1;durP2;ratioP2;P2;SDS_P1;SDS_P2;PMS_P1;PMS_P2;Temp;Humidity;BMP_temperature;BMP_pressure;BME280_temperature;BME280_humidity;BME280_pressure;Samples;Min_cycle;Max_cycle;Signal;HPM_P1;HPM_P2
2022/03/19 00:00:39;;;;;;;130.38;45.65;;;;;;;-141.50;100.00;63355.56;5102004;28;20073;-80
2022/03/19 00:03:06;;;;;;;120.13;43.78;;;;;;;-141.50;100.00;63355.56;5079735;28;20047;-79
2022/03/19 00:05:33;;;;;;;127.88;43.00;;;;;;;-141.50;100.00;63355.56;5098278;28;20689;-81
2022/03/19 00:08:01;;;;;;;125.18;43.28;;;;;;;-141.50;100.00;63355.56;5101116;28;20048;-79
2022/03/19 00:10:27;;;;;;;116.65;43.83;;;;;;;-141.50;100.00;63355.56;5100221;28;20116;-80
2022/03/19 00:12:54;;;;;;;114.90;42.80;;;;;;;-141.50;100.00;63355.56;5108440;28;20055;-79
2022/03/19 00:15:21;;;;;;;117.10;43.08;;;;;;;-141.50;100.00;63355.56;5103324;28;20558;-78
2022/03/19 00:17:47;;;;;;;123.97;44.40;;;;;;;-141.50;100.00;63355.56;5096191;28;20151;-80
2022/03/19 00:20:14;;;;;;;132.63;44.17;;;;;;;-141.50;100.00;63355.56;5097693;28;20048;-80
2022/03/19 00:22:41;;;;;;;127.55;45.17;;;;;;;-141.50;100.00;63355.56;5080485;28;20611;-78
2022/03/19 00:25:11;;;;;;;113.95;44.25;;;;;;;-141.50;100.00;63355.56;5100850;28;20044;-80
2022/03/19 00:27:40;;;;;;;121.55;46.35;;;;;;;-141.50;100.00;63355.56;5101727;28;20048;-79
2022/03/19 00:30:08;;;;;;;127.32;47.45;;;;;;;-141.50;100.00;63355.56;5101766;28;20052;-79
2022/03/19 00:32:35;;;;;;;139.48;47.78;;;;;;;-141.50;100.00;63355.56;5102577;28;20044;-79
2022/03/19 00:35:03;;;;;;;143.73;49.13;;;;;;;-141.50;100.00;63355.56;5106885;28;20058;-80
2022/03/19 00:37:32;;;;;;;130.05;48.28;;;;;;;-141.50;100.00;63355.56;5106652;28;20044;-81
2022/03/19 00:39:58;;;;;;;128.20;47.53;;;;;;;-141.50;100.00;63355.56;5105210;28;20047;-77
2022/03/19 00:42:25;;;;;;;154.15;49.00;;;;;;;-141.50;100.00;63355.56;5103466;28;20064;-79
2022/03/19 00:44:51;;;;;;;135.77;48.00;;;;;;;-141.50;100.00;63355.56;5103548;28;20089;-80
2022/03/19 00:47:18;;;;;;;137.23;47.53;;;;;;;-141.50;100.00;63355.56;5093617;28;20048;-79
2022/03/19 00:49:44;;;;;;;143.18;47.70;;;;;;;-141.50;100.00;63355.56;5108230;28;20032;-81
2022/03/19 00:52:11;;;;;;;123.03;46.42;;;;;;;-141.50;100.00;63355.56;5113521;28;20048;-80
2022/03/19 00:54:37;;;;;;;146.60;50.10;;;;;;;-141.50;100.00;63355.56;5107839;28;20047;-79
2022/03/19 00:57:04;;;;;;;131.02;46.70;;;;;;;-141.50;100.00;63355.56;5100715;28;20055;-79
2022/03/19 00:59:30;;;;;;;127.85;46.72;;;;;;;-141.50;100.00;63355.56;5082003;28;20117;-80
2022/03/19 01:01:57;;;;;;;130.02;46.08;;;;;;;-141.50;100.00;63355.56;5102086;28;20067;-80
2022/03/19 01:04:24;;;;;;;119.15;44.25;;;;;;;-141.50;100.00;63355.56;5101466;28;20052;-79
2022/03/19 01:06:50;;;;;;;112.28;42.15;;;;;;;-141.50;100.00;63355.56;5083602;28;20474;-80
2022/03/19 01:09:17;;;;;;;107.07;40.45;;;;;;;-141.50;100.00;63355.56;5104738;28;20074;-81
2022/03/19 01:11:43;;;;;;;104.10;40.67;;;;;;;-141.50;100.00;63355.56;5107253;28;20082;-82
2022/03/19 01:14:10;;;;;;;116.68;40.78;;;;;;;-141.50;100.00;63355.56;5099805;28;20086;-80
2022/03/19 01:16:36;;;;;;;113.47;42.08;;;;;;;-141.50;100.00;63355.56;5099322;28;20059;-79
2022/03/19 01:19:03;;;;;;;115.85;42.55;;;;;;;-141.50;100.00;63355.56;5097538;28;20052;-79
2022/03/19 01:21:30;;;;;;;117.85;44.42;;;;;;;-141.50;100.00;63355.56;5098915;28;20048;-81
2022/03/19 01:23:56;;;;;;;116.38;44.33;;;;;;;-141.50;100.00;63355.56;5080229;28;20468;-78
2022/03/19 01:26:24;;;;;;;111.10;42.20;;;;;;;-141.50;100.00;63355.56;5099237;28;20048;-79
2022/03/19 01:28:50;;;;;;;117.72;44.10;;;;;;;-141.50;100.00;63355.56;5099920;28;20075;-80
2022/03/19 01:31:17;;;;;;;111.75;42.45;;;;;;;-141.50;100.00;63355.56;5104016;28;20044;-78
2022/03/19 01:33:43;;;;;;;125.93;44.70;;;;;;;-141.50;100.00;63355.56;5104046;28;20073;-79
2022/03/19 01:36:10;;;;;;;126.45;44.42;;;;;;;-141.50;100.00;63355.56;5101552;28;20058;-83
2022/03/19 01:38:37;;;;;;;123.63;43.60;;;;;;;-141.50;100.00;63355.56;5104583;28;20052;-80
2022/03/19 01:41:05;;;;;;;124.10;44.70;;;;;;;-141.50;100.00;63355.56;5105919;28;20048;-80
2022/03/19 01:43:31;;;;;;;128.05;45.10;;;;;;;-141.50;100.00;63355.56;5102907;28;20044;-80
2022/03/19 01:45:58;;;;;;;124.72;45.10;;;;;;;-141.50;100.00;63355.56;5095385;28;20102;-79
2022/03/19 01:48:25;;;;;;;127.72;46.22;;;;;;;-141.50;100.00;63355.56;5092120;28;20052;-79
2022/03/19 01:50:51;;;;;;;133.95;47.97;;;;;;;-141.50;100.00;63355.56;5096487;28;20055;-80
2022/03/19 01:53:18;;;;;;;127.22;46.42;;;;;;;-141.50;100.00;63355.56;5085047;28;20465;-81
2022/03/19 01:55:45;;;;;;;125.80;47.70;;;;;;;-141.50;100.00;63355.56;5103820;28;20111;-80
2022/03/19 01:58:11;;;;;;;146.88;52.42;;;;;;;-141.50;100.00;63355.56;5099986;28;20048;-80
2022/03/19 02:00:38;;;;;;;129.70;47.95;;;;;;;-141.50;100.00;63355.56;5099252;28;20508;-80
2022/03/19 02:03:06;;;;;;;144.23;51.03;;;;;;;-141.50;100.00;63355.56;5099147;28;20055;-80
2022/03/19 02:05:33;;;;;;;142.57;48.72;;;;;;;-141.50;100.00;63355.56;5078009;28;20514;-78
2022/03/19 02:08:00;;;;;;;126.30;45.63;;;;;;;-141.50;100.00;63355.56;5096105;28;20051;-79
2022/03/19 02:10:26;;;;;;;130.73;45.92;;;;;;;-141.50;100.00;63355.56;5094543;28;20158;-79
2022/03/19 02:12:55;;;;;;;117.47;44.58;;;;;;;-141.50;100.00;63355.56;5095430;28;20075;-78
2022/03/19 02:15:22;;;;;;;115.63;45.00;;;;;;;-141.50;100.00;63355.56;5092789;28;20581;-78
2022/03/19 02:17:48;;;;;;;125.75;46.35;;;;;;;-141.50;100.00;63355.56;5076441;28;20137;-80
2022/03/19 02:20:15;;;;;;;126.30;45.00;;;;;;;-141.50;100.00;63355.56;5096093;28;20075;-79
2022/03/19 02:25:34;;;;;;;112.72;43.67;;;;;;;-141.50;100.00;63355.56;5077881;28;20044;-78
2022/03/19 02:25:37;;;;;;;106.20;42.20;;;;;;;-141.50;100.00;63355.56;5095684;28;20135;-79
2022/03/19 02:28:05;;;;;;;;;;;;;;;-141.50;100.00;63355.56;5096200;28;20051;-79
2022/03/19 02:30:36;;;;;;;126.38;43.47;;;;;;;-141.50;100.00;63355.56;5095880;28;19920;-79
2022/03/19 02:33:03;;;;;;;118.85;44.55;;;;;;;-141.50;100.00;63355.56;5095669;28;20064;-80
2022/03/19 02:35:29;;;;;;;122.60;47.63;;;;;;;-141.50;100.00;63355.56;5099730;28;20083;-79
2022/03/19 02:37:56;;;;;;;128.23;47.47;;;;;;;-141.50;100.00;63355.56;5085157;28;20035;-82
2022/03/19 02:40:23;;;;;;;135.77;49.30;;;;;;;-141.50;100.00;63355.56;5117547;28;20028;-80
2022/03/19 02:42:51;;;;;;;134.77;49.00;;;;;;;-141.50;100.00;63355.56;5119828;28;20038;-81
2022/03/19 02:45:19;;;;;;;146.25;49.75;;;;;;;-141.50;100.00;63355.56;5103643;28;20054;-79
2022/03/19 02:47:58;;;;;;;147.70;51.38;;;;;;;-141.50;100.00;63355.56;5088609;28;20118;-79
2022/03/19 02:50:32;;;;;;;140.50;49.58;;;;;;;-141.50;100.00;63355.56;5102575;28;20060;-80
2022/03/19 02:53:00;;;;;;;136.43;47.50;;;;;;;-141.50;100.00;63355.56;5105375;28;20713;-80
2022/03/19 02:55:32;;;;;;;145.85;49.70;;;;;;;-141.50;100.00;63355.56;5084393;28;20052;-79
2022/03/19 02:57:59;;;;;;;133.48;46.78;;;;;;;-141.50;100.00;63355.56;5098717;28;20109;-79
2022/03/19 03:00:26;;;;;;;143.20;47.80;;;;;;;-141.50;100.00;63355.56;5102590;28;20051;-77
2022/03/19 03:02:53;;;;;;;132.93;46.83;;;;;;;-141.50;100.00;63355.56;5104666;28;20048;-75
2022/03/19 03:05:19;;;;;;;126.40;43.97;;;;;;;-141.50;100.00;63355.56;5104995;28;20123;-78
2022/03/19 03:07:46;;;;;;;113.55;41.30;;;;;;;-141.50;100.00;63355.56;5097075;28;20048;-78
2022/03/19 03:10:16;;;;;;;111.40;40.67;;;;;;;-141.50;100.00;63355.56;5098799;28;20052;-80
2022/03/19 03:12:43;;;;;;;113.03;38.58;;;;;;;-141.50;100.00;63355.56;5099457;28;20048;-79
2022/03/19 03:15:10;;;;;;;98.53;36.88;;;;;;;-141.50;100.00;63355.56;5080759;28;20043;-78
2022/03/19 03:17:36;;;;;;;95.20;35.05;;;;;;;-141.50;100.00;63355.56;5101946;28;20234;-78
2022/03/19 03:20:03;;;;;;;85.47;32.42;;;;;;;-141.50;100.00;63355.56;5104706;28;20069;-80
2022/03/19 03:22:31;;;;;;;82.43;32.08;;;;;;;-141.50;100.00;63355.56;5087466;28;20052;-81
2022/03/19 03:24:57;;;;;;;76.90;30.25;;;;;;;-141.50;100.00;63355.56;5086923;28;20094;-78
2022/03/19 03:27:24;;;;;;;81.13;28.13;;;;;;;-141.50;100.00;63355.56;5082353;28;20121;-78
2022/03/19 03:29:51;;;;;;;69.28;27.88;;;;;;;-141.50;100.00;63355.56;5099813;28;20048;-78
2022/03/19 03:32:18;;;;;;;73.75;26.73;;;;;;;-141.50;100.00;63355.56;5100896;28;20056;-80
2022/03/19 03:34:44;;;;;;;58.92;25.63;;;;;;;-141.50;100.00;63355.56;5101019;28;20086;-79
2022/03/19 03:37:11;;;;;;;63.67;25.77;;;;;;;-141.50;100.00;63355.56;5098636;28;20055;-79
2022/03/19 03:39:37;;;;;;;66.60;25.42;;;;;;;-141.50;100.00;63355.56;5098953;28;20726;-80
2022/03/19 03:42:04;;;;;;;70.10;25.90;;;;;;;-141.50;100.00;63355.56;5097790;28;20075;-80
2022/03/19 03:44:30;;;;;;;65.75;25.35;;;;;;;-141.50;100.00;63355.56;5097626;28;20048;-81
2022/03/19 03:47:01;;;;;;;63.63;23.90;;;;;;;-141.50;100.00;63355.56;5087625;28;20113;-78
2022/03/19 03:49:27;;;;;;;68.38;24.10;;;;;;;-141.50;100.00;63355.56;5091879;28;20051;-77
2022/03/19 03:51:54;;;;;;;61.72;24.35;;;;;;;-141.50;100.00;63355.56;5098773;28;20052;-80
2022/03/19 03:54:20;;;;;;;64.50;23.42;;;;;;;-141.50;100.00;63355.56;5100227;28;20047;-81
2022/03/19 03:56:47;;;;;;;60.88;22.42;;;;;;;-141.50;100.00;63355.56;5098833;28;20048;-81
2022/03/19 03:59:14;;;;;;;54.08;23.00;;;;;;;-141.50;100.00;63355.56;5091389;28;20079;-78
2022/03/19 04:01:40;;;;;;;54.42;21.55;;;;;;;-141.50;100.00;63355.56;5092644;28;20139;-80
2022/03/19 04:04:08;;;;;;;57.08;22.10;;;;;;;-141.50;100.00;63355.56;5098215;28;20047;-80
2022/03/19 04:06:34;;;;;;;52.63;21.83;;;;;;;-141.50;100.00;63355.56;5098226;28;20052;-80
2022/03/19 04:09:01;;;;;;;58.88;22.80;;;;;;;-141.50;100.00;63355.56;5099997;28;20108;-81
2022/03/19 04:11:27;;;;;;;59.20;22.52;;;;;;;-141.50;100.00;63355.56;5084288;28;20048;-80
2022/03/19 04:13:54;;;;;;;57.75;22.65;;;;;;;-141.50;100.00;63355.56;5097611;28;20097;-78
2022/03/19 04:16:22;;;;;;;61.78;23.35;;;;;;;-141.50;100.00;63355.56;5098455;28;20131;-81
2022/03/19 04:18:48;;;;;;;57.67;23.00;;;;;;;-141.50;100.00;63355.56;5102052;28;20055;-79
2022/03/19 04:21:15;;;;;;;56.22;22.77;;;;;;;-141.50;100.00;63355.56;5098547;28;20052;-79
2022/03/19 04:23:41;;;;;;;55.15;23.13;;;;;;;-141.50;100.00;63355.56;5100352;28;20040;-79
2022/03/19 04:26:08;;;;;;;51.88;21.65;;;;;;;-141.50;100.00;63355.56;5097729;28;20252;-78
2022/03/19 04:28:34;;;;;;;54.63;21.75;;;;;;;-141.50;100.00;63355.56;5095791;28;20762;-78
2022/03/19 04:31:01;;;;;;;55.30;21.13;;;;;;;-141.50;100.00;63355.56;5078275;28;20055;-79
2022/03/19 04:33:27;;;;;;;60.42;20.90;;;;;;;-141.50;100.00;63355.56;5097837;28;20048;-79
2022/03/19 04:38:40;;;;;;;54.10;20.33;;;;;;;-141.50;100.00;63355.56;5101158;28;20056;-81
2022/03/19 04:41:06;;;;;;;50.78;20.05;;;;;;;-141.50;100.00;63355.56;5100828;28;20097;-78
2022/03/19 04:43:33;;;;;;;76.18;26.58;;;;;;;-141.50;100.00;63355.56;5099067;28;20048;-81
2022/03/19 04:45:59;;;;;;;114.93;38.80;;;;;;;-141.50;100.00;63355.56;5097132;28;20102;-79
2022/03/19 04:48:27;;;;;;;99.25;33.80;;;;;;;-141.50;100.00;63355.56;5099074;28;20072;-78
2022/03/19 04:50:54;;;;;;;93.28;31.50;;;;;;;-141.50;100.00;63355.56;5100181;28;20051;-79
2022/03/19 04:53:21;;;;;;;72.32;27.63;;;;;;;-141.50;100.00;63355.56;5098838;28;20109;-78
2022/03/19 04:55:48;;;;;;;68.78;24.60;;;;;;;-141.50;100.00;63355.56;5096551;28;20466;-80
2022/03/19 04:58:16;;;;;;;61.25;22.50;;;;;;;-141.50;100.00;63355.56;5082594;28;20111;-77
2022/03/19 05:00:42;;;;;;;54.22;19.42;;;;;;;-141.50;100.00;63355.56;5102482;28;20066;-79
2022/03/19 05:03:13;;;;;;;63.33;21.25;;;;;;;-141.50;100.00;63355.56;5103713;28;20633;-77
2022/03/19 05:05:40;;;;;;;60.95;22.23;;;;;;;-141.50;100.00;63355.56;5104511;28;20058;-81
2022/03/19 05:08:07;;;;;;;58.40;21.42;;;;;;;-141.50;100.00;63355.56;5101933;28;20052;-78
2022/03/19 05:13:21;;;;;;;58.50;21.23;;;;;;;-141.50;100.00;63355.56;5103148;28;20423;-79
2022/03/19 05:15:48;;;;;;;49.05;20.92;;;;;;;-141.50;100.00;63355.56;5106245;28;20097;-77
2022/03/19 05:18:14;;;;;;;56.10;20.48;;;;;;;-141.50;100.00;63355.56;5111053;28;20081;-79
2022/03/19 05:20:41;;;;;;;45.88;18.95;;;;;;;-141.50;100.00;63355.56;5097329;28;20511;-79
2022/03/19 05:23:07;;;;;;;52.97;19.00;;;;;;;-141.50;100.00;63355.56;5096437;28;20617;-79
2022/03/19 05:25:34;;;;;;;54.75;20.08;;;;;;;-141.50;100.00;63355.56;5096659;28;20051;-78
2022/03/19 05:28:00;;;;;;;58.90;22.48;;;;;;;-141.50;100.00;63355.56;5103581;28;20052;-79
2022/03/19 05:30:47;;;;;;;83.28;28.48;;;;;;;-141.50;100.00;63355.56;5102404;28;20138;-79
2022/03/19 05:33:15;;;;;;;72.63;26.23;;;;;;;-141.50;100.00;63355.56;5099776;28;20111;-79
2022/03/19 05:35:44;;;;;;;71.60;23.77;;;;;;;-141.50;100.00;63355.56;5087898;28;20090;-78
2022/03/19 05:38:12;;;;;;;67.38;23.38;;;;;;;-141.50;100.00;63355.56;5089883;28;20075;-79
2022/03/19 05:40:38;;;;;;;53.50;18.52;;;;;;;-141.50;100.00;63355.56;5085690;28;20692;-81
2022/03/19 05:43:05;;;;;;;58.92;20.10;;;;;;;-141.50;100.00;63355.56;5055564;28;20056;-79
2022/03/19 05:45:32;;;;;;;54.00;19.27;;;;;;;-141.50;100.00;63355.56;5082222;28;20101;-80
2022/03/19 05:47:58;;;;;;;62.03;20.60;;;;;;;-141.50;100.00;63355.56;5082445;28;20139;-79
2022/03/19 05:50:25;;;;;;;56.72;20.65;;;;;;;-141.50;100.00;63355.56;5091353;28;20632;-80
2022/03/19 05:52:51;;;;;;;55.55;18.98;;;;;;;-141.50;100.00;63355.56;5084952;28;20692;-80
2022/03/19 05:55:18;;;;;;;59.97;20.17;;;;;;;-141.50;100.00;63355.56;5069169;28;20500;-76
2022/03/19 05:57:45;;;;;;;56.42;20.60;;;;;;;-141.50;100.00;63355.56;5051216;28;20504;-78
2022/03/19 06:00:11;;;;;;;47.42;18.92;;;;;;;-141.50;100.00;63355.56;5051109;28;20052;-78
2022/03/19 06:02:41;;;;;;;70.75;23.20;;;;;;;-141.50;100.00;63355.56;5053335;28;20056;-77
2022/03/19 06:05:08;;;;;;;61.53;21.38;;;;;;;-141.50;100.00;63355.56;5077549;28;20527;-79
2022/03/19 06:07:35;;;;;;;90.28;29.75;;;;;;;-141.50;100.00;63355.56;5077845;28;20052;-79
2022/03/19 06:10:02;;;;;;;84.18;27.75;;;;;;;-141.50;100.00;63355.56;5080096;28;20064;-80
2022/03/19 06:12:30;;;;;;;93.80;30.55;;;;;;;-141.50;100.00;63355.56;5083436;28;20072;-81
2022/03/19 06:14:56;;;;;;;78.13;24.50;;;;;;;-141.50;100.00;63355.56;5094953;28;20037;-80
2022/03/19 06:17:23;;;;;;;52.40;19.60;;;;;;;-141.50;100.00;63355.56;5096984;28;20056;-80
2022/03/19 06:19:50;;;;;;;50.03;18.02;;;;;;;-141.50;100.00;63355.56;5093586;28;20040;-78
2022/03/19 06:22:17;;;;;;;50.00;16.65;;;;;;;-141.50;100.00;63355.56;5081126;28;20234;-83
2022/03/19 06:24:43;;;;;;;46.40;16.48;;;;;;;-141.50;100.00;63355.56;5071128;28;20045;-79
2022/03/19 06:27:10;;;;;;;39.47;17.13;;;;;;;-141.50;100.00;63355.56;5070920;28;20057;-80
2022/03/19 06:29:36;;;;;;;55.28;16.35;;;;;;;-141.50;100.00;63355.56;5071489;28;20052;-78
2022/03/19 06:32:03;;;;;;;50.28;16.10;;;;;;;-141.50;100.00;63355.56;5074705;28;20048;-82
2022/03/19 06:34:31;;;;;;;48.47;15.52;;;;;;;-141.50;100.00;63355.56;5084601;28;20147;-79
2022/03/19 06:39:43;;;;;;;53.10;14.20;;;;;;;-141.50;100.00;63355.56;5091793;28;20059;-79
2022/03/19 06:42:10;;;;;;;46.13;13.45;;;;;;;-141.50;100.00;63355.56;5090047;28;20059;-81
2022/03/19 06:44:38;;;;;;;40.63;12.75;;;;;;;-141.50;100.00;63355.56;5093003;28;20056;-81
2022/03/19 06:47:06;;;;;;;38.67;13.35;;;;;;;-141.50;100.00;63355.56;5096148;28;20055;-80
2022/03/19 06:49:32;;;;;;;45.85;13.27;;;;;;;-141.50;100.00;63355.56;5092469;28;20074;-80
2022/03/19 06:51:59;;;;;;;33.35;11.80;;;;;;;-141.50;100.00;63355.56;5091552;28;20063;-79
2022/03/19 06:54:25;;;;;;;39.00;13.15;;;;;;;-141.50;100.00;63355.56;5095195;28;20512;-79
2022/03/19 06:56:52;;;;;;;42.33;12.60;;;;;;;-141.50;100.00;63355.56;5079621;28;20090;-77
2022/03/19 06:59:18;;;;;;;41.05;13.45;;;;;;;-141.50;100.00;63355.56;5092840;28;20200;-78
2022/03/19 07:01:45;;;;;;;42.88;14.98;;;;;;;-141.50;100.00;63355.56;5092982;28;20075;-79
2022/03/19 07:04:12;;;;;;;47.80;16.55;;;;;;;-141.50;100.00;63355.56;5092744;28;20139;-77
2022/03/19 07:06:38;;;;;;;50.75;17.42;;;;;;;-141.50;100.00;63355.56;5093054;28;20483;-79
2022/03/19 07:09:25;;;;;;;46.60;15.68;;;;;;;-141.50;100.00;63355.56;5095247;28;20122;-78
2022/03/19 07:11:51;;;;;;;42.92;16.15;;;;;;;-141.50;100.00;63355.56;5096521;28;20075;-79
2022/03/19 07:14:18;;;;;;;40.38;16.50;;;;;;;-141.50;100.00;63355.56;5097986;28;20087;-79
2022/03/19 07:16:44;;;;;;;48.90;15.52;;;;;;;-141.50;100.00;63355.56;5097165;28;20103;-78
2022/03/19 07:19:12;;;;;;;45.90;16.55;;;;;;;-141.50;100.00;63355.56;5095176;28;20143;-78
2022/03/19 07:21:39;;;;;;;45.20;17.80;;;;;;;-141.50;100.00;63355.56;5099433;28;20425;-79
2022/03/19 07:24:06;;;;;;;49.72;15.98;;;;;;;-141.50;100.00;63355.56;5096538;28;20212;-77
2022/03/19 07:26:33;;;;;;;43.97;15.05;;;;;;;-141.50;100.00;63355.56;5098124;28;20075;-81
2022/03/19 07:29:01;;;;;;;46.95;16.48;;;;;;;-141.50;100.00;63355.56;5097682;28;20040;-79
2022/03/19 07:31:28;;;;;;;46.03;14.88;;;;;;;-141.50;100.00;63355.56;5097450;28;20122;-77
2022/03/19 07:33:55;;;;;;;39.78;13.48;;;;;;;-141.50;100.00;63355.56;5098795;28;20116;-78
2022/03/19 07:36:22;;;;;;;48.45;15.18;;;;;;;-141.50;100.00;63355.56;5098237;28;20085;-79
2022/03/19 07:38:49;;;;;;;59.95;16.98;;;;;;;-141.50;100.00;63355.56;5083538;28;20052;-80
2022/03/19 07:44:03;;;;;;;59.80;18.95;;;;;;;-141.50;100.00;63355.56;5106077;28;20075;-78
2022/03/19 07:46:30;;;;;;;67.78;20.25;;;;;;;-141.50;100.00;63355.56;5091115;28;20056;-77
2022/03/19 07:48:57;;;;;;;54.35;18.40;;;;;;;-141.50;100.00;63355.56;5084036;28;20054;-77
2022/03/19 07:51:23;;;;;;;51.25;19.45;;;;;;;-141.50;100.00;63355.56;5068858;28;20090;-79
2022/03/19 07:53:50;;;;;;;58.47;20.20;;;;;;;-141.50;100.00;63355.56;5074730;28;20075;-78
2022/03/19 07:56:16;;;;;;;56.05;20.35;;;;;;;-141.50;100.00;63355.56;5088568;28;20117;-79
2022/03/19 07:58:45;;;;;;;60.05;21.25;;;;;;;-141.50;100.00;63355.56;5096910;28;20075;-81
2022/03/19 08:01:11;;;;;;;65.07;22.33;;;;;;;-141.50;100.00;63355.56;5096956;28;20276;-80
2022/03/19 08:03:38;;;;;;;73.30;25.02;;;;;;;-141.50;100.00;63355.56;5095275;28;20047;-78
2022/03/19 08:06:05;;;;;;;73.28;25.67;;;;;;;-141.50;100.00;63355.56;5079413;28;20087;-81
2022/03/19 08:08:33;;;;;;;70.80;25.73;;;;;;;-141.50;100.00;63355.56;5090510;28;20051;-79
2022/03/19 08:11:01;;;;;;;75.82;27.08;;;;;;;-141.50;100.00;63355.56;5092693;28;20055;-78
2022/03/19 08:13:28;;;;;;;78.75;27.25;;;;;;;-141.50;100.00;63355.56;5092332;28;20056;-78
2022/03/19 08:15:55;;;;;;;79.95;28.42;;;;;;;-141.50;100.00;63355.56;5087641;28;20583;-77
2022/03/19 08:18:22;;;;;;;77.03;28.20;;;;;;;-141.50;100.00;63355.56;5093828;28;20083;-79
2022/03/19 08:20:49;;;;;;;79.50;27.48;;;;;;;-141.50;100.00;63355.56;5092815;28;20055;-78
2022/03/19 08:23:16;;;;;;;78.88;26.92;;;;;;;-141.50;100.00;63355.56;5079937;28;20166;-80
2022/03/19 08:25:42;;;;;;;80.00;25.90;;;;;;;-141.50;100.00;63355.56;5089559;28;20094;-78
2022/03/19 08:28:09;;;;;;;65.43;24.05;;;;;;;-141.50;100.00;63355.56;5087143;28;20083;-78
2022/03/19 08:30:36;;;;;;;64.93;23.80;;;;;;;-141.50;100.00;63355.56;5079163;28;20493;-80
2022/03/19 08:33:03;;;;;;;64.82;23.48;;;;;;;-141.50;100.00;63355.56;5086505;28;20097;-79
2022/03/19 08:35:29;;;;;;;64.63;23.23;;;;;;;-141.50;100.00;63355.56;5092051;28;20326;-79
2022/03/19 08:40:41;;;;;;;45.08;17.38;;;;;;;-141.50;100.00;63355.56;5075713;28;20061;-81
2022/03/19 08:43:08;;;;;;;61.35;22.40;;;;;;;-141.50;100.00;63355.56;5091878;28;20045;-79
2022/03/19 08:45:35;;;;;;;63.78;23.42;;;;;;;-141.50;100.00;63355.56;5105914;28;20047;-77
2022/03/19 08:48:06;;;;;;;55.63;22.45;;;;;;;-141.50;100.00;63355.56;5107145;28;20052;-80
2022/03/19 08:50:37;;;;;;;63.78;22.85;;;;;;;-141.50;100.00;63355.56;5104193;28;20465;-80
2022/03/19 08:53:04;;;;;;;54.20;21.60;;;;;;;-141.50;100.00;63355.56;5099250;28;20072;-80
2022/03/19 08:55:30;;;;;;;60.47;22.63;;;;;;;-141.50;100.00;63355.56;5096382;28;20069;-81
2022/03/19 08:57:57;;;;;;;45.08;20.35;;;;;;;-141.50;100.00;63355.56;5097323;28;20542;-78
2022/03/19 09:00:23;;;;;;;54.13;18.58;;;;;;;-141.50;100.00;63355.56;5093911;28;20119;-80
2022/03/19 09:02:50;;;;;;;44.00;19.08;;;;;;;-141.50;100.00;63355.56;5095708;28;20078;-80
2022/03/19 09:05:17;;;;;;;51.75;20.33;;;;;;;-141.50;100.00;63355.56;5099093;28;20086;-81
2022/03/19 09:07:43;;;;;;;48.95;18.48;;;;;;;-141.50;100.00;63355.56;5080175;28;20047;-77
2022/03/19 09:10:10;;;;;;;54.58;18.95;;;;;;;-141.50;100.00;63355.56;5095885;28;20119;-79
2022/03/19 09:12:38;;;;;;;49.33;18.92;;;;;;;-141.50;100.00;63355.56;5092314;28;20055;-79
2022/03/19 09:15:07;;;;;;;47.58;17.80;;;;;;;-141.50;100.00;63355.56;5095829;28;20055;-80
2022/03/19 09:17:34;;;;;;;53.05;17.60;;;;;;;-141.50;100.00;63355.56;5096622;28;20067;-80
2022/03/19 09:20:02;;;;;;;42.95;16.77;;;;;;;-141.50;100.00;63355.56;5094988;28;20052;-79
2022/03/19 09:22:30;;;;;;;39.92;17.00;;;;;;;-141.50;100.00;63355.56;5078678;28;20508;-79
2022/03/19 09:24:57;;;;;;;43.10;16.65;;;;;;;-141.50;100.00;63355.56;5091991;28;20044;-79
2022/03/19 09:27:24;;;;;;;41.85;16.63;;;;;;;-141.50;100.00;63355.56;5089397;28;20671;-78
2022/03/19 09:29:50;;;;;;;45.55;16.63;;;;;;;-141.50;100.00;63355.56;5088087;28;20144;-77
2022/03/19 09:32:18;;;;;;;37.33;15.63;;;;;;;-141.50;100.00;63355.56;5088029;28;20083;-78
2022/03/19 09:34:48;;;;;;;44.20;15.63;;;;;;;-141.50;100.00;63355.56;5090646;28;20048;-79
2022/03/19 09:37:17;;;;;;;36.28;15.93;;;;;;;-141.50;100.00;63355.56;5090997;28;20083;-79
2022/03/19 09:39:44;;;;;;;38.72;15.15;;;;;;;-141.50;100.00;63355.56;5093531;28;20075;-78
2022/03/19 09:42:12;;;;;;;48.35;17.35;;;;;;;-141.50;100.00;63355.56;5097582;28;20063;-80
2022/03/19 09:44:43;;;;;;;40.58;16.38;;;;;;;-141.50;100.00;63355.56;5105865;28;20070;-78
2022/03/19 09:47:11;;;;;;;40.53;15.82;;;;;;;-141.50;100.00;63355.56;5102631;28;20591;-80
2022/03/19 11:35:01;;;;;;;38.10;20.33;;;;;;;-141.50;100.00;63355.56;5071403;28;20578;-79
2022/03/19 11:38:01;;;;;;;32.65;18.50;;;;;;;-141.50;100.00;63355.56;5017662;28;20461;-77
2022/03/19 11:40:36;;;;;;;35.30;17.02;;;;;;;-141.50;100.00;63355.56;5071085;28;20060;-77
2022/03/19 11:43:35;;;;;;;32.60;17.73;;;;;;;-141.50;100.00;63355.56;5054721;28;20103;-78
2022/03/19 11:46:12;;;;;;;32.22;17.30;;;;;;;-141.50;100.00;63355.56;5067696;28;20127;-77
2022/03/19 11:48:59;;;;;;;31.80;16.30;;;;;;;-141.50;100.00;63355.56;5066891;28;20041;-77
2022/03/19 11:51:35;;;;;;;34.97;16.80;;;;;;;-141.50;100.00;63355.56;5051913;28;20103;-78
2022/03/19 11:54:17;;;;;;;35.25;18.33;;;;;;;-141.50;100.00;63355.56;5059057;28;20056;-77
2022/03/19 11:56:44;;;;;;;32.63;16.38;;;;;;;-141.50;100.00;63355.56;5082395;28;20032;-78
2022/03/19 11:59:12;;;;;;;32.25;16.48;;;;;;;-141.50;100.00;63355.56;5064102;28;20039;-78
2022/03/19 12:01:58;;;;;;;33.30;16.80;;;;;;;-141.50;100.00;63355.56;5076885;28;20045;-77
2022/03/19 12:04:51;;;;;;;25.00;13.63;;;;;;;-141.50;100.00;63355.56;5058120;28;20092;-76
2022/03/19 12:07:44;;;;;;;24.95;13.65;;;;;;;-141.50;100.00;63355.56;5072228;28;20048;-77
2022/03/19 12:10:15;;;;;;;26.38;13.23;;;;;;;-141.50;100.00;63355.56;5084028;28;20117;-76
2022/03/19 12:12:44;;;;;;;27.52;13.27;;;;;;;-141.50;100.00;63355.56;5084496;28;20116;-76
2022/03/19 12:15:29;;;;;;;29.98;13.65;;;;;;;-141.50;100.00;63355.56;5083224;28;20045;-77
2022/03/19 12:18:22;;;;;;;26.73;13.38;;;;;;;-141.50;100.00;63355.56;5061337;28;20060;-77
2022/03/19 12:20:49;;;;;;;26.27;13.77;;;;;;;-141.50;100.00;63355.56;5069313;28;20044;-77
2022/03/19 12:23:17;;;;;;;30.90;12.57;;;;;;;-141.50;100.00;63355.56;5070155;28;20477;-77
2022/03/19 12:25:54;;;;;;;21.92;10.80;;;;;;;-141.50;100.00;63355.56;5071299;28;20448;-77
2022/03/19 12:28:21;;;;;;;22.27;11.38;;;;;;;-141.50;100.00;63355.56;5071744;28;20063;-77
2022/03/19 12:30:47;;;;;;;22.20;11.20;;;;;;;-141.50;100.00;63355.56;5070902;28;20060;-77
2022/03/19 12:33:14;;;;;;;20.48;11.05;;;;;;;-141.50;100.00;63355.56;5072122;28;20052;-77
2022/03/19 12:35:46;;;;;;;20.25;10.60;;;;;;;-141.50;100.00;63355.56;5072272;28;20050;-79
2022/03/19 12:38:28;;;;;;;19.67;10.98;;;;;;;-141.50;100.00;63355.56;5071940;28;20299;-76
2022/03/19 12:43:40;;;;;;;19.27;10.30;;;;;;;-141.50;100.00;63355.56;5074389;28;20125;-75
2022/03/19 12:46:06;;;;;;;21.25;10.98;;;;;;;-141.50;100.00;63355.56;5073290;28;20102;-78
2022/03/19 12:48:34;;;;;;;18.48;10.57;;;;;;;-141.50;100.00;63355.56;5074333;28;20049;-77
2022/03/19 12:51:00;;;;;;;22.23;10.35;;;;;;;-141.50;100.00;63355.56;5054781;28;20136;-79
2022/03/19 12:53:37;;;;;;;19.00;10.50;;;;;;;-141.50;100.00;63355.56;5053707;28;20495;-77
2022/03/19 12:56:11;;;;;;;21.02;10.80;;;;;;;-141.50;100.00;63355.56;5054224;28;20041;-76
2022/03/19 12:58:39;;;;;;;21.35;10.95;;;;;;;-141.50;100.00;63355.56;5054036;28;20143;-77